Time;durP1;ratioP1;P1;durP2;ratioP2;P2;SDS_P1;SDS_P2;PMS_P1;PMS_P2;Temp;Humidity;BMP_temperature;BMP_pressure;BME280_temperature;BME280_humidity;BME280_pressure;Samples;Min_cycle;Max_cycle;Signal;HPM_P1;HPM_P2
2022/06/03 00:00:19;;;;;;;14.10;12.70;;;27.00;1.00;;;;;;5013135;28;20550;-45
2022/06/03 00:03:14;;;;;;;12.25;11.10;;;27.00;1.00;;;;;;5012240;28;20022;-49
2022/06/03 00:06:10;;;;;;;13.00;11.77;;;27.00;1.00;;;;;;4976216;28;20038;-48
2022/06/03 00:12:07;;;;;;;12.73;11.52;;;26.90;1.00;;;;;;4995027;28;20030;-45
2022/06/03 00:14:41;;;;;;;13.00;11.80;;;26.80;1.00;;;;;;5006333;28;20080;-45
2022/06/03 00:17:46;;;;;;;12.10;10.90;;;26.80;1.00;;;;;;5000013;28;20101;-45
2022/06/03 00:20:48;;;;;;;12.45;11.35;;;26.80;1.00;;;;;;5011447;28;20037;-45
2022/06/03 00:23:19;;;;;;;12.70;11.60;;;26.80;1.00;;;;;;5010019;28;20030;-45
2022/06/03 00:26:12;;;;;;;12.63;11.63;;;26.80;1.00;;;;;;5013130;28;20431;-45
2022/06/03 00:28:52;;;;;;;12.55;11.45;;;26.80;1.00;;;;;;5011827;28;20070;-44
2022/06/03 00:31:26;;;;;;;12.48;11.27;;;26.80;1.00;;;;;;5000245;28;20026;-45
2022/06/03 00:34:02;;;;;;;12.73;11.52;;;26.70;1.00;;;;;;5005651;28;20058;-45
2022/06/03 00:36:37;;;;;;;12.63;11.57;;;26.70;1.00;;;;;;5014037;28;20022;-44
2022/06/03 00:39:17;;;;;;;13.10;12.00;;;26.60;1.00;;;;;;5016041;28;20545;-44
2022/06/03 00:42:21;;;;;;;13.13;11.95;;;26.60;1.00;;;;;;5013548;28;20045;-46
2022/06/03 00:44:59;;;;;;;13.75;12.45;;;26.40;1.00;;;;;;5010162;28;20042;-43
2022/06/03 00:47:39;;;;;;;13.77;12.43;;;26.50;1.00;;;;;;5002421;28;20033;-43
2022/06/03 00:50:17;;;;;;;15.00;12.20;;;26.50;1.00;;;;;;5009920;28;20069;-44
2022/06/03 00:52:43;;;;;;;13.57;12.23;;;26.50;1.00;;;;;;5014808;28;20061;-44
2022/06/03 00:55:29;;;;;;;14.30;12.80;;;26.50;1.00;;;;;;5015405;28;20073;-45
2022/06/03 00:58:16;;;;;;;13.00;11.80;;;26.50;1.00;;;;;;5004526;28;20499;-44
2022/06/03 01:01:14;;;;;;;14.55;13.05;;;26.50;1.00;;;;;;5016455;28;20476;-44
2022/06/03 01:04:11;;;;;;;14.45;13.00;;;26.40;1.00;;;;;;5015413;28;20476;-46
2022/06/03 01:07:07;;;;;;;14.48;13.15;;;26.40;1.00;;;;;;5005941;28;20030;-44
2022/06/03 01:09:55;;;;;;;14.70;13.23;;;26.30;1.00;;;;;;5012180;28;20048;-49
2022/06/03 01:12:40;;;;;;;13.73;12.48;;;26.30;1.00;;;;;;5015824;28;20036;-44
2022/06/03 01:15:05;;;;;;;;;;;26.30;1.00;;;;;;5006545;28;20022;-46
2022/06/03 01:17:58;;;;;;;14.18;12.73;;;26.20;1.00;;;;;;5015520;28;19923;-44
2022/06/03 01:20:45;;;;;;;14.45;13.15;;;26.30;1.00;;;;;;5008389;28;20037;-45
2022/06/03 01:23:45;;;;;;;14.70;13.30;;;26.30;1.00;;;;;;5015325;28;20072;-44
2022/06/03 01:26:31;;;;;;;14.85;13.63;;;26.20;1.00;;;;;;5014087;28;20045;-44
2022/06/03 01:29:20;;;;;;;14.07;12.77;;;26.20;1.00;;;;;;5014073;28;20675;-46
2022/06/03 01:32:19;;;;;;;15.27;13.68;;;26.20;1.00;;;;;;5002152;28;20057;-44
2022/06/03 01:34:50;;;;;;;14.82;13.43;;;26.20;1.00;;;;;;5012610;28;20108;-44
2022/06/03 01:37:39;;;;;;;15.32;13.75;;;26.20;1.00;;;;;;5013837;28;20080;-44
2022/06/03 01:40:16;;;;;;;15.55;13.85;;;26.20;1.00;;;;;;5015120;28;20037;-44
2022/06/03 01:43:23;;;;;;;16.08;14.48;;;26.20;1.00;;;;;;5014654;28;20076;-44
2022/06/03 01:46:03;;;;;;;18.85;17.02;;;26.10;1.00;;;;;;5005842;28;20026;-47
2022/06/03 01:49:04;;;;;;;16.75;14.93;;;26.00;1.00;;;;;;5014543;28;20030;-43
2022/06/03 01:51:54;;;;;;;17.45;15.82;;;26.00;1.00;;;;;;4997293;28;20540;-47
2022/06/03 01:54:46;;;;;;;19.98;17.27;;;25.90;1.00;;;;;;5014051;28;20057;-44
2022/06/03 01:57:30;;;;;;;18.77;16.83;;;25.90;1.00;;;;;;5015511;28;20037;-44
2022/06/03 02:00:21;;;;;;;19.05;17.25;;;25.90;1.00;;;;;;5013850;28;20535;-45
2022/06/03 02:03:11;;;;;;;23.10;18.33;;;25.80;1.00;;;;;;4997249;28;20500;-44
2022/06/03 02:05:55;;;;;;;20.60;18.42;;;25.80;1.00;;;;;;5014313;28;20025;-47
2022/06/03 02:08:31;;;;;;;19.30;17.42;;;25.80;1.00;;;;;;5014521;28;20045;-45
2022/06/03 02:11:09;;;;;;;20.85;17.33;;;25.80;1.00;;;;;;5002372;28;20465;-44
2022/06/03 02:13:59;;;;;;;22.05;19.85;;;25.80;1.00;;;;;;5013964;28;20038;-44
2022/06/03 02:20:17;;;;;;;20.73;18.83;;;25.60;1.00;;;;;;4989049;28;20058;-46
2022/06/03 02:22:49;;;;;;;21.20;19.10;;;25.60;1.00;;;;;;5012559;28;20432;-45
2022/06/03 02:25:27;;;;;;;23.30;20.67;;;25.60;1.00;;;;;;5015197;28;20030;-47
2022/06/03 02:27:55;;;;;;;23.35;20.73;;;25.60;1.00;;;;;;5013733;28;20537;-51
2022/06/03 02:30:48;;;;;;;21.23;19.15;;;25.60;1.00;;;;;;5014611;28;20440;-51
2022/06/03 02:33:14;;;;;;;21.80;19.48;;;25.60;1.00;;;;;;4995819;28;20026;-49
2022/06/03 02:35:59;;;;;;;21.70;19.42;;;25.50;1.00;;;;;;5012774;28;20026;-48
2022/06/03 02:38:43;;;;;;;;;;;25.50;1.00;;;;;;5013957;28;20101;-49
2022/06/03 02:41:34;;;;;;;21.63;19.50;;;25.40;1.00;;;;;;5003037;28;19955;-45
2022/06/03 02:44:08;;;;;;;22.30;20.23;;;25.40;1.00;;;;;;5013369;28;20535;-50
2022/06/03 02:47:09;;;;;;;23.35;20.85;;;25.40;1.00;;;;;;5014392;28;20030;-47
2022/06/03 02:50:04;;;;;;;24.25;21.85;;;25.40;1.00;;;;;;5009051;28;20461;-47
2022/06/03 02:52:55;;;;;;;22.33;19.98;;;25.40;1.00;;;;;;5014190;28;20037;-45
2022/06/03 02:55:49;;;;;;;23.17;20.83;;;25.50;1.00;;;;;;5007421;28;20038;-48
2022/06/03 02:58:34;;;;;;;22.73;20.15;;;25.40;1.00;;;;;;5013658;28;20110;-44
2022/06/03 03:01:06;;;;;;;23.00;20.75;;;25.40;1.00;;;;;;5013973;28;20482;-46
2022/06/03 03:03:47;;;;;;;22.65;20.25;;;25.40;1.00;;;;;;5013269;28;20073;-51
2022/06/03 03:06:49;;;;;;;23.70;21.27;;;25.30;1.00;;;;;;5013997;28;20030;-47
2022/06/03 03:09:21;;;;;;;22.80;20.50;;;25.30;1.00;;;;;;5001623;28;20041;-44
2022/06/03 03:12:24;;;;;;;21.98;19.50;;;25.30;1.00;;;;;;5014045;28;20076;-47
2022/06/03 03:15:15;;;;;;;21.15;18.90;;;25.30;1.00;;;;;;5012700;28;20426;-45
2022/06/03 03:18:14;;;;;;;22.75;20.13;;;25.30;1.00;;;;;;5012544;28;20133;-47
2022/06/03 03:20:59;;;;;;;23.27;20.77;;;25.40;1.00;;;;;;5012528;28;20065;-45
2022/06/03 03:23:47;;;;;;;23.20;20.77;;;25.30;1.00;;;;;;5012907;28;20094;-46
2022/06/03 03:26:59;;;;;;;22.77;20.38;;;25.20;1.00;;;;;;5012455;28;20415;-48
2022/06/03 03:29:45;;;;;;;22.17;19.88;;;25.30;1.00;;;;;;4997681;28;20137;-47
2022/06/03 03:32:41;;;;;;;23.52;21.45;;;25.30;1.00;;;;;;4999562;28;20488;-47
2022/06/03 03:35:47;;;;;;;22.67;20.48;;;25.40;1.00;;;;;;5012897;28;20077;-50
2022/06/03 03:38:55;;;;;;;24.25;21.52;;;25.40;1.00;;;;;;5012568;28;20906;-46
2022/06/03 03:41:43;;;;;;;25.40;20.98;;;25.30;1.00;;;;;;5013696;28;20042;-45
2022/06/03 03:44:41;;;;;;;24.58;21.23;;;25.20;1.00;;;;;;5001477;28;20065;-45
2022/06/03 03:47:58;;;;;;;24.50;21.95;;;25.30;1.00;;;;;;5013221;28;20033;-44
2022/06/03 03:50:36;;;;;;;23.35;20.75;;;25.30;1.00;;;;;;4974618;28;20399;-44
2022/06/03 03:53:49;;;;;;;23.95;21.42;;;25.30;1.00;;;;;;5012806;28;20029;-46
2022/06/03 03:56:49;;;;;;;24.00;21.40;;;25.20;1.00;;;;;;5002451;28;20503;-46
2022/06/03 03:59:56;;;;;;;23.00;20.70;;;25.30;1.00;;;;;;5007151;28;20141;-49
2022/06/03 04:02:51;;;;;;;23.80;20.70;;;25.30;1.00;;;;;;5011324;28;20033;-48
2022/06/03 04:05:36;;;;;;;25.40;22.83;;;25.30;1.00;;;;;;4942498;28;20486;-47
2022/06/03 04:08:28;;;;;;;22.98;20.75;;;25.20;1.00;;;;;;5000774;28;20057;-46
2022/06/03 04:11:16;;;;;;;25.55;22.90;;;25.20;1.00;;;;;;5011038;28;20096;-47
2022/06/03 04:14:09;;;;;;;24.17;21.75;;;25.20;1.00;;;;;;5012153;28;20049;-50
2022/06/03 04:17:11;;;;;;;23.85;21.45;;;25.20;1.00;;;;;;5001757;28;20030;-47
2022/06/03 04:20:16;;;;;;;22.00;19.70;;;25.30;1.00;;;;;;5011202;28;20076;-50
2022/06/03 04:23:19;;;;;;;23.48;21.10;;;25.30;1.00;;;;;;5011372;28;20038;-45
2022/06/03 04:26:12;;;;;;;23.67;21.35;;;25.20;1.00;;;;;;5007026;28;20025;-46
2022/06/03 04:28:55;;;;;;;22.48;20.27;;;25.30;1.00;;;;;;5007268;28;20049;-47
2022/06/03 04:31:41;;;;;;;21.92;19.75;;;25.30;1.00;;;;;;5007000;28;20109;-51
2022/06/03 04:34:21;;;;;;;23.40;19.83;;;25.30;1.00;;;;;;5000624;28;20033;-48
2022/06/03 04:37:14;;;;;;;21.90;19.75;;;25.40;1.00;;;;;;5013234;28;20045;-46
2022/06/03 04:39:48;;;;;;;24.02;20.90;;;25.20;1.00;;;;;;5012291;28;20077;-48
2022/06/03 04:42:32;;;;;;;22.98;20.13;;;25.20;1.00;;;;;;5013152;28;20103;-46
2022/06/03 04:45:06;;;;;;;24.33;20.17;;;25.20;1.00;;;;;;5008422;28;20529;-44
2022/06/03 04:48:11;;;;;;;23.58;21.35;;;25.30;1.00;;;;;;4995520;28;20050;-50
2022/06/03 04:50:55;;;;;;;22.05;19.98;;;25.30;1.00;;;;;;5012710;28;20069;-50
2022/06/03 04:54:18;;;;;;;22.35;20.35;;;25.30;1.00;;;;;;5011779;28;20032;-45
2022/06/03 04:57:01;;;;;;;21.40;19.40;;;25.30;1.00;;;;;;4933214;29;20043;-45
2022/06/03 04:59:51;;;;;;;24.00;21.70;;;25.30;1.00;;;;;;4932385;29;20040;-47
2022/06/03 05:02:44;;;;;;;24.52;21.90;;;25.30;1.00;;;;;;4983518;28;20034;-46
2022/06/03 05:05:48;;;;;;;24.33;21.52;;;25.40;1.00;;;;;;5011662;28;20059;-50
2022/06/03 05:08:32;;;;;;;22.92;20.90;;;25.40;1.00;;;;;;4975735;28;20076;-49
2022/06/03 05:11:20;;;;;;;24.17;21.88;;;25.30;1.00;;;;;;4998702;28;20030;-45
2022/06/03 05:14:23;;;;;;;22.77;20.50;;;25.40;1.00;;;;;;5010591;28;20427;-50
2022/06/03 05:17:27;;;;;;;24.05;21.45;;;25.40;1.00;;;;;;5012198;28;20384;-50
2022/06/03 05:20:05;;;;;;;23.17;20.58;;;25.40;1.00;;;;;;5004202;28;20065;-47
2022/06/03 05:22:47;;;;;;;27.10;22.70;;;25.50;1.00;;;;;;5013523;28;20018;-47
2022/06/03 05:25:31;;;;;;;24.25;21.85;;;25.40;1.00;;;;;;5014697;28;20022;-47
2022/06/03 05:28:58;;;;;;;23.80;21.38;;;25.40;1.00;;;;;;5014561;28;20392;-47
2022/06/03 05:32:02;;;;;;;24.75;22.27;;;25.40;1.00;;;;;;4926345;29;20059;-49
2022/06/03 05:34:55;;;;;;;25.80;23.05;;;25.40;1.00;;;;;;5015113;28;20030;-47
2022/06/03 05:37:55;;;;;;;25.45;22.55;;;25.50;1.00;;;;;;5015885;28;20026;-47
2022/06/03 05:40:49;;;;;;;25.35;22.85;;;25.40;1.00;;;;;;5013823;28;20119;-46
2022/06/03 05:43:14;;;;;;;26.70;24.15;;;25.50;1.00;;;;;;5015732;28;20054;-48
2022/06/03 05:46:16;;;;;;;25.40;22.63;;;25.40;1.00;;;;;;5013945;28;20168;-47
2022/06/03 05:48:51;;;;;;;24.98;22.45;;;25.50;1.00;;;;;;5013994;28;20042;-45
2022/06/03 05:51:43;;;;;;;26.58;24.00;;;25.60;1.00;;;;;;5015841;28;20520;-47
2022/06/03 05:54:20;;;;;;;26.05;23.55;;;25.50;1.00;;;;;;5013190;28;20104;-48
2022/06/03 05:57:14;;;;;;;26.00;23.15;;;25.50;1.00;;;;;;5015851;28;20129;-45
2022/06/03 05:59:49;;;;;;;25.85;23.45;;;25.50;1.00;;;;;;5012540;28;20056;-46
2022/06/03 06:02:52;;;;;;;26.27;23.52;;;25.40;1.00;;;;;;5015406;28;20476;-47
2022/06/03 06:05:43;;;;;;;26.85;23.23;;;25.40;1.00;;;;;;4928032;29;20502;-48
2022/06/03 06:08:43;;;;;;;25.77;23.20;;;25.40;1.00;;;;;;5002053;28;20116;-47
2022/06/03 06:11:15;;;;;;;26.95;24.27;;;25.50;1.00;;;;;;5015029;28;20040;-44
2022/06/03 06:13:50;;;;;;;29.48;24.42;;;25.40;1.00;;;;;;5012640;28;20086;-46
2022/06/03 06:16:40;;;;;;;27.73;24.77;;;25.40;1.00;;;;;;5015133;28;20046;-48
2022/06/03 06:19:45;;;;;;;29.48;26.25;;;25.40;1.00;;;;;;5010731;28;20084;-48
2022/06/03 06:22:10;;;;;;;;;;;25.40;1.00;;;;;;5009015;28;20030;-45
2022/06/03 06:24:51;;;;;;;26.88;24.35;;;25.40;1.00;;;;;;5007420;28;19932;-46
2022/06/03 06:27:48;;;;;;;29.23;26.00;;;25.50;1.00;;;;;;5015051;28;20476;-45
2022/06/03 06:40:37;;;;;;;29.90;26.88;;;25.60;1.00;;;;;;5000351;28;20045;-46
2022/06/03 06:43:40;;;;;;;30.17;26.52;;;25.60;1.00;;;;;;5000003;28;20025;-43
2022/06/03 06:46:06;;;;;;;30.65;26.65;;;25.60;1.00;;;;;;5013206;28;20093;-47
2022/06/03 06:49:00;;;;;;;30.17;27.05;;;25.70;1.00;;;;;;5013202;28;20128;-43
2022/06/03 06:51:44;;;;;;;29.00;26.17;;;25.60;1.00;;;;;;5013269;28;20101;-45
2022/06/03 06:54:51;;;;;;;29.70;26.40;;;25.60;1.00;;;;;;5012237;28;20034;-48
2022/06/03 06:57:25;;;;;;;28.50;25.25;;;25.70;1.00;;;;;;4966946;28;20035;-43
2022/06/03 07:00:26;;;;;;;28.20;24.95;;;25.70;1.00;;;;;;4969347;28;20019;-44
2022/06/03 07:03:23;;;;;;;29.98;26.13;;;25.70;1.00;;;;;;4992268;28;20507;-48
2022/06/03 07:05:53;;;;;;;31.15;27.50;;;25.80;1.00;;;;;;5013521;28;20091;-44
2022/06/03 07:08:33;;;;;;;27.67;24.50;;;25.80;1.00;;;;;;5014098;28;20436;-47
2022/06/03 07:10:59;;;;;;;27.52;24.52;;;25.80;1.00;;;;;;5013016;28;20484;-47
2022/06/03 07:14:00;;;;;;;28.38;25.13;;;25.80;1.00;;;;;;5012534;28;20022;-47
2022/06/03 07:19:48;;;;;;;31.10;23.85;;;25.70;1.00;;;;;;5013818;28;20522;-45
2022/06/03 07:22:51;;;;;;;27.13;22.40;;;25.90;1.00;;;;;;5008737;28;20026;-45
2022/06/03 07:25:23;;;;;;;25.60;20.98;;;25.90;1.00;;;;;;5000871;28;20030;-48
2022/06/03 07:28:17;;;;;;;29.02;22.70;;;26.00;1.00;;;;;;5013000;28;20033;-44
2022/06/03 07:30:59;;;;;;;23.90;21.42;;;26.10;1.00;;;;;;5013745;28;20037;-46
2022/06/03 07:33:30;;;;;;;24.90;21.30;;;26.10;1.00;;;;;;5007153;28;20030;-47
2022/06/03 07:36:21;;;;;;;23.10;20.40;;;26.10;1.00;;;;;;4999476;28;20117;-47
2022/06/03 07:38:57;;;;;;;23.65;21.25;;;26.00;1.00;;;;;;5009286;28;20526;-46
2022/06/03 07:41:29;;;;;;;23.67;21.17;;;26.20;1.00;;;;;;5012780;28;20029;-47
2022/06/03 07:43:58;;;;;;;21.58;19.48;;;26.20;1.00;;;;;;5013307;28;20022;-46
2022/06/03 07:46:50;;;;;;;23.15;20.67;;;26.10;1.00;;;;;;5012543;28;20030;-46
2022/06/03 07:49:17;;;;;;;21.25;19.00;;;26.20;1.00;;;;;;5012652;28;20061;-48
2022/06/03 07:51:57;;;;;;;22.80;18.75;;;26.30;1.00;;;;;;5012718;28;20032;-46
2022/06/03 07:54:34;;;;;;;23.25;18.92;;;26.30;1.00;;;;;;5013402;28;20029;-47
2022/06/03 07:57:19;;;;;;;24.02;19.23;;;26.40;1.00;;;;;;5012364;28;20526;-49
2022/06/03 07:59:45;;;;;;;19.88;17.83;;;26.30;1.00;;;;;;4999743;28;20017;-46
2022/06/03 08:02:20;;;;;;;24.42;17.88;;;26.50;1.00;;;;;;5012135;28;20084;-47
2022/06/03 08:04:47;;;;;;;19.67;17.73;;;26.50;1.00;;;;;;5013297;28;20532;-44
2022/06/03 08:13:12;;;;;;;17.80;15.82;;;26.60;1.00;;;;;;5012251;28;20036;-46
2022/06/03 08:15:45;;;;;;;20.83;18.63;;;26.80;1.00;;;;;;5012568;28;20124;-46
2022/06/03 08:18:16;;;;;;;22.27;18.77;;;26.90;1.00;;;;;;5001202;28;20037;-45
2022/06/03 08:20:57;;;;;;;23.90;19.73;;;26.90;1.00;;;;;;5013054;28;20050;-46
2022/06/03 08:23:24;;;;;;;27.58;21.77;;;27.00;1.00;;;;;;5011991;28;20029;-45
2022/06/03 08:25:53;;;;;;;23.50;20.65;;;26.80;1.00;;;;;;5012788;28;20034;-50
2022/06/03 08:28:23;;;;;;;22.33;20.08;;;26.90;1.00;;;;;;5011777;28;20633;-50
2022/06/03 08:30:51;;;;;;;23.60;21.08;;;26.90;1.00;;;;;;5012994;28;20030;-48
2022/06/03 08:33:43;;;;;;;26.92;22.52;;;27.00;1.00;;;;;;5012067;28;20025;-44
2022/06/03 08:36:13;;;;;;;22.67;19.95;;;27.00;1.00;;;;;;5011787;28;20033;-47
2022/06/03 08:38:46;;;;;;;21.60;19.38;;;27.00;1.00;;;;;;5006205;28;20464;-45
2022/06/03 08:41:46;;;;;;;21.08;18.13;;;27.00;1.00;;;;;;5012244;28;20025;-44
2022/06/03 08:44:50;;;;;;;26.20;18.52;;;27.00;1.00;;;;;;5010859;28;20072;-47
2022/06/03 08:47:20;;;;;;;20.88;18.83;;;26.90;1.00;;;;;;4999026;28;20128;-45
2022/06/03 08:49:51;;;;;;;21.23;18.23;;;26.90;1.00;;;;;;5013154;28;20041;-46
2022/06/03 08:52:24;;;;;;;24.85;19.63;;;26.80;1.00;;;;;;5011596;28;20435;-46
2022/06/03 08:54:55;;;;;;;21.03;18.80;;;27.00;1.00;;;;;;5012934;28;20506;-47
2022/06/03 08:57:45;;;;;;;28.45;19.73;;;27.00;1.00;;;;;;5012410;28;20399;-49
2022/06/03 09:00:21;;;;;;;21.48;19.00;;;27.00;1.00;;;;;;5006982;28;20034;-49
2022/06/03 09:02:59;;;;;;;23.38;18.25;;;27.20;1.00;;;;;;5015449;28;20022;-44
2022/06/03 09:05:44;;;;;;;21.55;17.75;;;27.10;1.00;;;;;;5016609;28;20425;-44
2022/06/03 09:08:16;;;;;;;20.27;17.10;;;27.20;1.00;;;;;;5015070;28;20034;-48
2022/06/03 09:10:51;;;;;;;23.13;17.75;;;27.30;1.00;;;;;;5015724;28;20046;-47
2022/06/03 09:13:41;;;;;;;25.55;17.60;;;27.40;1.00;;;;;;5014558;28;20120;-49
2022/06/03 09:16:10;;;;;;;19.25;17.23;;;27.60;1.00;;;;;;5015516;28;20041;-48
2022/06/03 09:18:44;;;;;;;18.58;16.77;;;27.60;1.00;;;;;;5015231;28;20030;-46
2022/06/03 09:21:13;;;;;;;19.42;16.30;;;27.70;1.00;;;;;;5014780;28;20037;-46
2022/06/03 09:23:54;;;;;;;18.40;16.40;;;27.80;1.00;;;;;;5014993;28;20080;-47
2022/06/03 09:26:31;;;;;;;20.52;17.85;;;27.70;1.00;;;;;;5015525;28;20029;-47
2022/06/03 09:28:58;;;;;;;18.77;16.75;;;27.70;1.00;;;;;;5014799;28;20037;-47
2022/06/03 09:31:25;;;;;;;19.63;16.55;;;27.70;1.00;;;;;;5015212;28;20026;-45
2022/06/03 09:33:53;;;;;;;20.60;17.58;;;27.60;1.00;;;;;;5016188;28;20040;-45
2022/06/03 09:36:20;;;;;;;22.42;18.98;;;27.60;1.00;;;;;;5015673;28;20061;-44
2022/06/03 09:38:51;;;;;;;22.73;18.70;;;27.60;1.00;;;;;;5015273;28;20033;-47
2022/06/03 09:41:21;;;;;;;19.90;17.98;;;27.60;1.00;;;;;;5015891;28;20392;-46
2022/06/03 09:43:53;;;;;;;26.17;18.25;;;27.70;1.00;;;;;;5015498;28;20449;-45
2022/06/03 09:46:21;;;;;;;21.15;19.08;;;27.70;1.00;;;;;;5001329;28;20526;-46
2022/06/03 09:48:48;;;;;;;19.70;17.60;;;27.60;1.00;;;;;;4998740;28;20197;-45
2022/06/03 09:51:24;;;;;;;19.35;17.25;;;27.70;1.00;;;;;;5010974;28;20061;-45
2022/06/03 09:53:50;;;;;;;24.02;17.05;;;27.70;1.00;;;;;;5015442;28;20029;-47
2022/06/03 09:56:26;;;;;;;18.52;16.45;;;27.60;1.00;;;;;;5015041;28;20026;-47
2022/06/03 09:58:55;;;;;;;19.02;16.98;;;27.70;1.00;;;;;;5015348;28;20502;-45
2022/06/03 10:01:21;;;;;;;19.98;18.00;;;27.70;1.00;;;;;;5015526;28;20030;-47
2022/06/03 10:03:47;;;;;;;21.00;18.85;;;27.70;1.00;;;;;;5014813;28;20176;-44
2022/06/03 10:06:43;;;;;;;24.02;17.67;;;27.70;1.00;;;;;;5013895;28;20476;-48
2022/06/03 10:14:27;;;;;;;;;;;27.50;1.00;;;;;;5015847;28;20037;-46
2022/06/03 10:16:52;;;;;;;19.50;15.40;;;27.40;1.00;;;;;;5012807;28;19913;-47
2022/06/03 10:19:18;;;;;;;20.92;16.52;;;27.30;1.00;;;;;;5015006;28;20056;-45
2022/06/03 10:21:55;;;;;;;19.42;15.02;;;27.30;1.00;;;;;;5011998;28;20030;-46
2022/06/03 10:24:28;;;;;;;21.90;17.48;;;27.20;1.00;;;;;;5012934;28;20429;-47
2022/06/03 10:27:00;;;;;;;18.38;14.75;;;27.10;1.00;;;;;;5009895;28;20034;-45
2022/06/03 10:29:26;;;;;;;21.48;14.75;;;27.10;1.00;;;;;;5002456;28;20038;-48
2022/06/03 10:32:01;;;;;;;15.63;14.02;;;27.10;1.00;;;;;;5011495;28;20109;-47
2022/06/03 10:34:34;;;;;;;20.38;16.15;;;27.10;1.00;;;;;;5007725;28;20033;-46
2022/06/03 10:37:00;;;;;;;15.93;14.40;;;27.10;1.00;;;;;;5013711;28;20026;-47
2022/06/03 10:39:28;;;;;;;17.30;15.05;;;27.00;1.00;;;;;;5012276;28;20041;-48
2022/06/03 10:41:58;;;;;;;18.73;14.82;;;26.50;98.10;;;;;;5012892;28;20476;-47
2022/06/03 10:44:33;;;;;;;17.65;13.95;;;26.70;1.00;;;;;;5009834;28;20117;-51
2022/06/03 10:47:19;;;;;;;15.70;14.02;;;27.00;1.00;;;;;;5006118;28;20056;-49
2022/06/03 10:49:59;;;;;;;17.55;15.00;;;27.00;1.00;;;;;;5002127;28;20037;-49
2022/06/03 11:01:39;;;;;;;18.17;14.13;;;27.00;1.00;;;;;;5014554;28;20044;-51
2022/06/03 11:04:05;;;;;;;19.55;15.20;;;27.10;1.00;;;;;;5013989;28;20037;-47
2022/06/03 11:06:39;;;;;;;16.95;14.75;;;26.80;1.00;;;;;;5013417;28;20030;-46
2022/06/03 11:09:07;;;;;;;19.73;15.93;;;26.90;1.00;;;;;;5013838;28;20069;-45
2022/06/03 11:11:42;;;;;;;16.75;14.30;;;26.80;1.00;;;;;;5012981;28;20036;-46
2022/06/03 11:14:36;;;;;;;19.50;13.90;;;26.60;1.00;;;;;;5007964;28;20030;-45
2022/06/03 11:17:13;;;;;;;17.42;13.27;;;25.70;14.90;;;;;;5000055;28;20030;-46
2022/06/03 11:19:44;;;;;;;16.98;14.00;;;25.40;5.30;;;;;;5013818;28;20404;-45
2022/06/03 11:22:16;;;;;;;15.20;13.70;;;25.70;5.00;;;;;;5013115;28;20033;-45
2022/06/03 11:24:49;;;;;;;15.10;12.52;;;26.10;1.00;;;;;;5014279;28;20484;-45
2022/06/03 11:27:17;;;;;;;16.83;12.70;;;26.20;1.00;;;;;;5008676;28;20209;-44
2022/06/03 11:29:45;;;;;;;14.90;11.00;;;26.30;1.00;;;;;;5007551;28;20117;-43
2022/06/03 11:32:13;;;;;;;11.60;9.95;;;26.30;1.00;;;;;;5012787;28;20451;-44
2022/06/03 11:34:47;;;;;;;19.45;12.20;;;26.30;1.00;;;;;;5013856;28;20468;-44
2022/06/03 11:37:17;;;;;;;;;;;26.10;1.00;;;;;;5010965;28;20026;-44
2022/06/03 11:43:01;;;;;;;13.48;8.18;;;26.10;1.00;;;;;;4998366;28;20049;-47
2022/06/03 11:45:39;;;;;;;14.25;8.57;;;26.30;1.00;;;;;;5007693;28;20108;-47
2022/06/03 11:48:12;;;;;;;9.80;8.90;;;25.70;1.00;;;;;;5012626;28;20025;-45
2022/06/03 11:50:38;;;;;;;14.38;10.52;;;25.90;4.10;;;;;;5013525;28;20109;-44
2022/06/03 11:53:04;;;;;;;15.25;11.43;;;25.90;3.20;;;;;;5012727;28;20087;-44
2022/06/03 11:55:32;;;;;;;15.70;12.45;;;25.40;2.20;;;;;;5012065;28;20034;-46
2022/06/03 11:58:21;;;;;;;15.73;12.07;;;25.80;2.70;;;;;;5013052;28;20101;-45
2022/06/03 12:00:54;;;;;;;14.05;11.07;;;25.80;4.50;;;;;;5009318;28;20145;-46
2022/06/03 12:04:07;;;;;;;13.73;7.40;;;25.70;5.10;;;;;;5011290;28;20029;-46
2022/06/03 12:06:40;;;;;;;10.73;8.18;;;25.10;17.60;;;;;;4952894;29;20035;-47
2022/06/03 12:09:09;;;;;;;9.70;7.93;;;24.70;13.90;;;;;;5006845;28;20053;-46
2022/06/03 12:14:36;;;;;;;13.68;7.45;;;23.80;99.90;;;;;;5012322;28;20045;-50
2022/06/03 12:17:11;;;;;;;12.88;7.80;;;23.20;99.90;;;;;;5012349;28;20502;-46
2022/06/03 12:19:42;;;;;;;17.70;8.90;;;22.80;99.90;;;;;;5012093;28;20054;-45
2022/06/03 12:22:19;;;;;;;13.85;8.85;;;22.80;99.90;;;;;;5011971;28;20555;-47
2022/06/03 12:24:49;;;;;;;18.05;9.57;;;22.90;99.90;;;;;;5012045;28;20364;-45
2022/06/03 12:27:26;;;;;;;19.00;11.13;;;23.00;99.90;;;;;;5012776;28;20448;-46
2022/06/03 12:30:09;;;;;;;16.35;10.93;;;23.10;99.90;;;;;;5012128;28;20122;-47
2022/06/03 12:32:37;;;;;;;16.27;9.98;;;23.70;99.90;;;;;;5014439;28;20113;-46
2022/06/03 12:35:47;;;;;;;19.30;11.93;;;23.40;99.90;;;;;;5014740;28;20040;-49
2022/06/03 12:38:19;;;;;;;12.32;10.18;;;23.40;99.90;;;;;;5001755;28;20046;-45
2022/06/03 12:40:46;;;;;;;17.13;12.18;;;23.50;99.90;;;;;;5013768;28;20036;-47
2022/06/03 12:43:44;;;;;;;17.55;11.27;;;23.60;99.90;;;;;;5016537;28;20030;-49
2022/06/03 12:46:30;;;;;;;12.02;10.30;;;23.70;99.90;;;;;;4962338;28;20030;-46
2022/06/03 12:48:56;;;;;;;13.00;10.10;;;23.60;99.90;;;;;;5011828;28;20057;-46
2022/06/03 12:51:24;;;;;;;14.25;11.60;;;23.70;99.90;;;;;;5016891;28;20025;-51
2022/06/03 12:53:55;;;;;;;13.73;9.18;;;23.50;99.90;;;;;;5014868;28;20111;-47
2022/06/03 12:56:26;;;;;;;17.40;10.38;;;23.30;99.90;;;;;;5015692;28;20156;-46
2022/06/03 12:59:05;;;;;;;19.73;11.80;;;23.20;99.90;;;;;;5015632;28;20044;-47
2022/06/03 13:01:46;;;;;;;19.30;13.55;;;23.10;99.90;;;;;;5004928;28;20153;-46
2022/06/03 13:05:07;;;;;;;16.05;12.82;;;23.60;99.90;;;;;;5014693;28;20034;-49
2022/06/03 13:07:36;;;;;;;13.90;11.38;;;23.20;99.90;;;;;;4972694;28;20029;-52
2022/06/03 13:10:07;;;;;;;16.92;13.00;;;23.20;99.90;;;;;;5014868;28;20038;-47
2022/06/03 13:12:33;;;;;;;17.00;14.40;;;23.40;99.90;;;;;;5014682;28;20026;-49
2022/06/03 13:15:16;;;;;;;18.92;14.73;;;23.50;99.90;;;;;;5010314;28;20037;-49
2022/06/03 13:18:10;;;;;;;15.93;13.98;;;23.30;99.90;;;;;;5016511;28;20056;-48
2022/06/03 13:21:10;;;;;;;19.08;15.68;;;23.60;99.90;;;;;;5015186;28;20504;-47
2022/06/03 13:23:44;;;;;;;15.90;14.27;;;23.70;99.90;;;;;;5015413;28;20033;-45
2022/06/03 13:26:22;;;;;;;21.20;15.13;;;24.00;99.90;;;;;;5016035;28;20026;-46
2022/06/03 13:28:56;;;;;;;18.73;13.95;;;24.00;99.90;;;;;;5015360;28;20129;-48
2022/06/03 13:31:27;;;;;;;13.35;11.73;;;24.00;99.90;;;;;;5016367;28;20116;-48
2022/06/03 13:34:15;;;;;;;14.07;12.55;;;23.40;99.90;;;;;;5015277;28;20379;-49
2022/06/03 13:36:51;;;;;;;16.95;13.88;;;23.60;99.90;;;;;;5016105;28;20040;-49
2022/06/03 13:39:28;;;;;;;13.80;10.90;;;23.70;99.90;;;;;;5010329;28;20495;-45
2022/06/03 13:45:02;;;;;;;14.43;11.88;;;23.20;99.90;;;;;;5014751;28;20048;-46
2022/06/03 13:47:46;;;;;;;15.02;13.15;;;23.30;99.90;;;;;;5015567;28;20096;-46
2022/06/03 13:50:14;;;;;;;;;;;23.60;99.90;;;;;;5015532;28;20042;-47
2022/06/03 13:52:46;;;;;;;13.85;11.88;;;24.10;99.90;;;;;;5015575;28;20386;-46
2022/06/03 13:55:35;;;;;;;13.55;11.57;;;24.50;99.90;;;;;;5013980;28;20116;-48
2022/06/03 13:58:25;;;;;;;14.25;11.40;;;24.80;99.90;;;;;;5003237;28;20042;-51
2022/06/03 14:00:54;;;;;;;11.88;10.73;;;24.70;99.90;;;;;;5015146;28;20033;-52
2022/06/03 14:03:37;;;;;;;13.70;11.40;;;24.50;99.90;;;;;;5015827;28;20018;-48
2022/06/03 14:06:17;;;;;;;16.77;13.38;;;24.30;99.90;;;;;;5012747;28;20061;-52
2022/06/03 14:08:50;;;;;;;16.20;13.40;;;24.30;99.90;;;;;;5014680;28;20061;-49
2022/06/03 14:11:27;;;;;;;18.20;13.73;;;24.10;99.90;;;;;;5015198;28;20026;-48
2022/06/03 14:14:03;;;;;;;14.65;13.10;;;24.30;99.90;;;;;;5014132;28;20479;-47
2022/06/03 14:16:37;;;;;;;16.88;15.07;;;24.30;99.90;;;;;;5015472;28;20026;-48
2022/06/03 14:19:02;;;;;;;;;;;24.10;99.90;;;;;;5014681;28;20022;-48
2022/06/03 14:21:33;;;;;;;16.95;14.43;;;24.20;99.90;;;;;;5015107;28;19910;-46
2022/06/03 14:24:11;;;;;;;20.13;14.82;;;24.10;99.90;;;;;;5014215;28;20034;-46
2022/06/03 14:26:44;;;;;;;16.02;14.30;;;24.00;99.90;;;;;;5014939;28;20018;-48
2022/06/03 14:29:16;;;;;;;17.40;15.57;;;24.10;99.90;;;;;;5004220;28;20038;-49
2022/06/03 14:31:50;;;;;;;17.92;15.80;;;24.20;99.90;;;;;;4999971;28;20030;-50
2022/06/03 14:34:23;;;;;;;19.55;15.93;;;24.20;99.90;;;;;;5008552;28;20108;-47
2022/06/03 14:36:51;;;;;;;19.75;16.00;;;24.20;99.90;;;;;;5013573;28;20487;-47
2022/06/03 14:39:26;;;;;;;22.13;17.90;;;24.10;99.90;;;;;;5013620;28;20026;-50
2022/06/03 14:41:56;;;;;;;20.55;18.45;;;24.20;99.90;;;;;;5000888;28;20032;-48